Aviation Digital Data Service (ADDS)

Output produced by TAFs form (1643 UTC 23 November 2017)
found at http://www.aviationweather.gov/adds/tafs/
 
KGFL 231129Z 2312/2412 34005KT P6SM SCT200 
     FM231500 31006KT P6SM BKN150 
     FM231800 25005KT P6SM BKN100 
     FM232300 VRB03KT P6SM BKN060 
     FM240600 20004KT P6SM SCT060 BKN200